Station MEEM4 - Manistee Harbor, MI Image indicating link to RSS feed of recent meteorological observations for station MEEM4


Conditions at MEEM4 as of
(8:40 pm EDT on 07/13/2024)
0040 GMT on 07/14/2024:
     

Click on the graph icon in the table below to see a time series plot of the last five days of that observation.

5-day plot - Wind Speed Wind Speed (WSPD): 0.0 kts
5-day plot - Wind Gust Wind Gust (GST): 1.9 kts
5-day plot - Air Temperature Air Temperature (ATMP): 77.5 °F
5-day plot - Wind Speed at 10 Meters Wind Speed at 10 meters (WSPD10M): 1.9 kts
5-day plot - Wind Speed at 20 Meters Wind Speed at 20 meters (WSPD20M): 1.9 kts
5-day plot -  Wind Speed, Wind Gust and Atmospheric Pressure Combined plot of Wind Speed, Gust, and Air Pressure
Previous observations
TIME
(EDT)
5-day plot - Wind Direction
WDIR
 
5-day plot - Wind Speed
WSPD
kts
5-day plot - Wind Gust
GST
kts
5-day plot - Wave Height
WVHT
ft
5-day plot - Dominant Wave Period
DPD
sec
5-day plot - Average Wave Period
APD
sec
5-day plot - Mean Wave Direction
MWD
 
5-day plot - Atmospheric Pressure
PRES
in
5-day plot - Pressure Tendency
PTDY
in
5-day plot - Air Temperature
ATMP
°F
5-day plot - Water Temperature
WTMP
°F
5-day plot - Dew Point
DEWP
°F
5-day plot - Salinity
SAL
psu
5-day plot - Visibility
VIS
nmi
5-day plot - Tide (above MLLW)
TIDE
ft
2024-07-13 08:30 pmSSW 1.0 5.1------ 77.2-----
2024-07-13 08:20 pm SW 2.9 5.1------ 78.6-----
2024-07-13 08:10 pm- 0.0 4.1------ 80.8-----
2024-07-13 08:00 pm- 0.0 4.1------ 81.3-----
2024-07-13 07:50 pm- 0.0 5.1------ 81.5-----
2024-07-13 07:40 pmSSE 1.9 5.1------ 80.8-----
2024-07-13 07:30 pmSSW 4.1 5.1------ 78.4-----
2024-07-13 07:20 pm SW 4.1 6.0------ 78.3-----
2024-07-13 07:10 pm SW 5.1 7.0------ 78.4-----
2024-07-13 07:00 pmSSW 6.0 8.9------ 79.5-----
2024-07-13 06:50 pm S 4.1 9.9------ 79.7-----
2024-07-13 06:40 pm S 6.0 12.0------ 78.4-----
2024-07-13 06:30 pmSSW 8.0 12.0------ 78.3-----
2024-07-13 06:20 pmSSW 8.0 11.1------ 77.4-----
2024-07-13 06:10 pm SW 6.0 9.9------ 77.7-----
2024-07-13 06:00 pmSSW 8.0 12.0------ 77.4-----
2024-07-13 05:50 pmSSW 8.9 13.0------ 76.5-----
2024-07-13 05:40 pmSSW 8.0 12.0------ 76.1-----
2024-07-13 05:30 pmSSW 8.9 12.0------ 76.1-----
2024-07-13 05:20 pmSSW 8.9 11.1------ 75.2-----
2024-07-13 05:10 pmSSW 8.0 9.9------ 74.5-----
2024-07-13 05:00 pm SW 8.9 12.0------ 75.0-----
2024-07-13 04:50 pmSSW 8.0 12.0------ 74.8-----
2024-07-13 04:40 pm SW 8.0 12.0------ 75.2-----
2024-07-13 04:30 pmSSW 8.0 9.9------ 74.8-----
2024-07-13 04:20 pm S 4.1 8.9------ 75.2-----
2024-07-13 04:10 pmSSW 8.0 13.0------ 74.7-----
2024-07-13 04:00 pm SW 12.0 15.9------ 74.7-----
2024-07-13 03:50 pm SW 13.0 15.0------ 74.1-----
2024-07-13 03:40 pm SW 9.9 15.0------ 73.9-----
2024-07-13 03:30 pm SW 11.1 14.0------ 73.6-----
2024-07-13 03:20 pm SW 11.1 14.0------ 74.5-----
2024-07-13 03:10 pm SW 8.9 13.0------ 73.8-----
2024-07-13 03:00 pm SW 12.0 13.0------ 74.7-----
2024-07-13 02:50 pm SW 11.1 13.0------ 73.8-----
2024-07-13 02:40 pm SW 11.1 13.0------ 73.2-----
2024-07-13 02:30 pm SW 11.1 12.0------ 73.6-----
2024-07-13 02:20 pm SW 8.9 11.1------ 73.4-----
2024-07-13 02:10 pm SW 8.0 12.0------ 74.8-----
2024-07-13 02:00 pm SW 9.9 13.0------ 73.4-----
2024-07-13 01:50 pm SW 11.1 13.0------ 73.0-----
2024-07-13 01:40 pm SW 8.9 13.0------ 73.2-----
2024-07-13 01:30 pm SW 11.1 13.0------ 73.0-----
2024-07-13 01:20 pm SW 9.9 13.0------ 72.7-----
2024-07-13 01:10 pm SW 9.9 12.0------ 72.9-----
2024-07-13 01:00 pm SW 9.9 12.0------ 73.2-----
2024-07-13 12:50 pm SW 8.9 12.0------ 73.9-----
2024-07-13 12:40 pm SW 9.9 12.0------ 74.1-----
2024-07-13 12:30 pm SW 7.0 8.9------ 73.6-----
2024-07-13 12:20 pm SW 8.0 8.9------ 73.4-----
2024-07-13 12:10 pm SW 7.0 9.9------ 74.3-----
2024-07-13 12:00 pm SW 7.0 9.9------ 72.9-----
2024-07-13 11:50 am SW 7.0 8.9------ 74.3-----
2024-07-13 11:40 am SW 6.0 8.9------ 74.1-----
2024-07-13 11:30 am SW 7.0 8.0------ 74.1-----
2024-07-13 11:20 am SW 6.0 8.0------ 74.5-----
2024-07-13 11:10 amSSW 7.0 8.9------ 73.9-----
2024-07-13 11:00 amSSW 6.0 8.0------ 73.9-----
2024-07-13 10:50 am SW 7.0 8.0------ 72.5-----
2024-07-13 10:40 am SW 7.0 8.9------ 74.1-----
2024-07-13 10:30 amSSW 7.0 8.9------ 74.1-----
2024-07-13 10:20 amSSW 6.0 9.9------ 73.8-----
2024-07-13 10:10 amSSW 6.0 8.9------ 73.9-----
2024-07-13 10:00 amSSW 6.0 8.9------ 74.3-----
2024-07-13 09:50 am S 4.1 8.0------ 74.3-----
2024-07-13 09:40 amSSW 4.1 8.0------ 74.3-----
2024-07-13 09:30 am S 2.9 6.0------ 74.1-----
2024-07-13 09:20 am- 0.0 6.0------ 75.6-----
2024-07-13 09:10 am- 0.0 5.1------ 74.8-----
2024-07-13 09:00 amSSE 1.9 4.1------ 73.4-----
2024-07-13 08:50 amSSE 2.9 6.0------ 72.3-----
2024-07-13 08:40 amSSE 1.9 6.0------ 71.4-----
2024-07-13 08:30 amSSE 4.1 6.0------ 70.2-----
2024-07-13 08:20 am SE 2.9 6.0------ 69.4-----
2024-07-13 08:10 am SE 1.9 4.1------ 68.0-----
2024-07-13 08:00 amESE 2.9 5.1------ 67.1-----
2024-07-13 07:50 amESE 2.9 5.1------ 66.0-----
2024-07-13 07:40 am E 2.9 5.1------ 65.3-----
2024-07-13 07:30 am E 2.9 5.1------ 64.9-----
2024-07-13 07:20 amESE 2.9 6.0------ 65.1-----
2024-07-13 07:10 am E 4.1 5.1------ 65.7-----
2024-07-13 07:00 am SE 4.1 5.1------ 64.9-----
2024-07-13 06:50 amESE 1.9 4.1------ 64.8-----
2024-07-13 06:40 am SE 4.1 6.0------ 65.1-----
2024-07-13 06:30 am SE 2.9 6.0------ 64.4-----
2024-07-13 06:20 am SE 4.1 8.0------ 64.6-----
2024-07-13 06:10 am SE 6.0 8.0------ 64.4-----
2024-07-13 06:00 amESE 2.9 7.0------ 64.0-----
2024-07-13 05:50 am SE 4.1 6.0------ 64.4-----
2024-07-13 05:40 amESE 4.1 7.0------ 64.6-----
2024-07-13 05:30 amESE 2.9 6.0------ 64.4-----
2024-07-13 05:20 amESE 2.9 6.0------ 64.6-----
2024-07-13 05:10 amESE 2.9 6.0------ 64.6-----
2024-07-13 05:00 amESE 2.9 6.0------ 64.6-----
2024-07-13 04:50 amESE 2.9 5.1------ 64.4-----
2024-07-13 04:40 amESE 2.9 5.1------ 64.6-----
2024-07-13 04:30 amESE 2.9 5.1------ 64.8-----
2024-07-13 04:20 amESE 2.9 5.1------ 64.8-----
2024-07-13 04:10 amESE 2.9 8.0------ 65.1-----
2024-07-13 04:00 am SE 4.1 6.0------ 65.3-----
2024-07-13 03:50 amESE 2.9 7.0------ 65.8-----
2024-07-13 03:40 am SE 6.0 8.0------ 65.7-----
2024-07-13 03:30 am SE 4.1 6.0------ 65.1-----
2024-07-13 03:20 am SE 4.1 6.0------ 65.3-----
2024-07-13 03:10 amESE 2.9 4.1------ 65.3-----
2024-07-13 03:00 amESE 2.9 4.1------ 65.3-----
2024-07-13 02:50 amESE 2.9 4.1------ 65.7-----
2024-07-13 02:40 amESE 2.9 4.1------ 65.7-----
2024-07-13 02:30 amESE 1.9 5.1------ 65.8-----
2024-07-13 02:20 amESE 2.9 5.1------ 65.8-----
2024-07-13 02:10 amESE 2.9 4.1------ 65.7-----
2024-07-13 02:00 am E 4.1 5.1------ 66.0-----
2024-07-13 01:50 amESE 2.9 5.1------ 66.4-----
2024-07-13 01:40 am E 2.9 4.1------ 66.7-----
2024-07-13 01:30 amESE 2.9 4.1------ 66.4-----
2024-07-13 01:20 am E 2.9 4.1------ 66.9-----
2024-07-13 01:10 amESE 1.9 2.9------ 67.1-----
2024-07-13 01:00 amESE 1.9 4.1------ 67.3-----
2024-07-13 12:50 amESE 2.9 4.1------ 67.8-----
2024-07-13 12:40 amESE 1.9 2.9------ 68.5-----
2024-07-13 12:30 amESE 1.9 4.1------ 68.7-----
2024-07-13 12:20 am SE 4.1 5.1------ 68.7-----
2024-07-13 12:10 am SE 4.1 5.1------ 68.7-----
2024-07-13 12:00 am SE 4.1 4.1------ 69.1-----
2024-07-12 11:50 pmESE 1.9 4.1------ 69.4-----
2024-07-12 11:40 pm SE 1.9 4.1------ 69.4-----
2024-07-12 11:30 pmSSE 2.9 4.1------ 69.6-----
2024-07-12 11:20 pmSSE 4.1 5.1------ 69.8-----
2024-07-12 11:10 pmESE 1.9 2.9------ 69.8-----
2024-07-12 11:00 pmSSE 2.9 4.1------ 70.2-----
2024-07-12 10:50 pmSSE 1.9 4.1------ 70.9-----
2024-07-12 10:40 pmSSE 2.9 2.9------ 70.9-----
2024-07-12 10:30 pm S 1.9 4.1------ 71.8-----
2024-07-12 10:20 pm S 2.9 6.0------ 72.1-----
2024-07-12 10:10 pmSSW 4.1 8.0------ 72.1-----
2024-07-12 10:00 pmSSW 5.1 7.0------ 72.9-----
2024-07-12 09:50 pm S 2.9 5.1------ 73.4-----
2024-07-12 09:40 pmSSW 1.9 4.1------ 73.8-----
2024-07-12 09:30 pm S 1.0 2.9------ 73.6-----
2024-07-12 09:20 pm S 1.0 1.9------ 73.4-----
2024-07-12 09:10 pm S 1.0 7.0------ 72.7-----
2024-07-12 09:00 pmSSW 6.0 7.0------ 72.3-----
2024-07-12 08:50 pmSSW 2.9 6.0------ 73.9-----